Airport View

Enter ICAO identifier to see the current METAR for that AWOS.

KFNL for example

KHIB 012253Z AUTO 29007KT 10SM CLR 21/10 A2971

1 Sep 2014 23:21

Frequency: 126.425

Phone: 218-263-8384

Other Area AWOS: KEVM - KCQM - KGPZ - KORB

TAF AMD KHIB 012033Z 0121/0218 29009G16KT P6SM SCT050 FM020300 29004KT P6SM BKN050 FM020800 VRB03KT 6SM BR SCT050 FM021300 29002KT P6SM FEW250